sensor_id;sensor_type;location;lat;lon;timestamp;temperature;humidity
59975;DHT22;62136;-35.664;-63.766;2022-11-20T00:01:13;27.00;56.90
59975;DHT22;62136;-35.664;-63.766;2022-11-20T00:03:40;27.00;56.90
59975;DHT22;62136;-35.664;-63.766;2022-11-20T00:06:11;27.00;57.00
59975;DHT22;62136;-35.664;-63.766;2022-11-20T00:08:39;27.00;57.10
59975;DHT22;62136;-35.664;-63.766;2022-11-20T00:11:14;26.90;57.00
59975;DHT22;62136;-35.664;-63.766;2022-11-20T00:13:42;26.90;57.10
59975;DHT22;62136;-35.664;-63.766;2022-11-20T00:16:11;26.90;57.00
59975;DHT22;62136;-35.664;-63.766;2022-11-20T00:18:39;26.90;57.10
59975;DHT22;62136;-35.664;-63.766;2022-11-20T00:21:13;26.90;57.10
59975;DHT22;62136;-35.664;-63.766;2022-11-20T00:23:41;26.90;57.20
59975;DHT22;62136;-35.664;-63.766;2022-11-20T00:26:10;26.90;57.10
59975;DHT22;62136;-35.664;-63.766;2022-11-20T00:28:38;26.90;57.20
59975;DHT22;62136;-35.664;-63.766;2022-11-20T00:31:11;26.90;57.20
59975;DHT22;62136;-35.664;-63.766;2022-11-20T00:33:38;26.90;57.30
59975;DHT22;62136;-35.664;-63.766;2022-11-20T00:36:08;26.80;57.30
59975;DHT22;62136;-35.664;-63.766;2022-11-20T00:38:36;26.90;57.30
59975;DHT22;62136;-35.664;-63.766;2022-11-20T00:41:05;26.80;57.30
59975;DHT22;62136;-35.664;-63.766;2022-11-20T00:43:33;26.80;57.30
59975;DHT22;62136;-35.664;-63.766;2022-11-20T00:46:09;26.90;57.40
59975;DHT22;62136;-35.664;-63.766;2022-11-20T00:48:36;26.80;57.30
59975;DHT22;62136;-35.664;-63.766;2022-11-20T00:51:04;26.80;57.30
59975;DHT22;62136;-35.664;-63.766;2022-11-20T00:53:31;26.80;57.40
59975;DHT22;62136;-35.664;-63.766;2022-11-20T00:56:01;26.80;57.50
59975;DHT22;62136;-35.664;-63.766;2022-11-20T00:58:37;26.80;57.50
59975;DHT22;62136;-35.664;-63.766;2022-11-20T01:01:09;26.80;57.50
59975;DHT22;62136;-35.664;-63.766;2022-11-20T01:03:39;26.70;57.50
59975;DHT22;62136;-35.664;-63.766;2022-11-20T01:06:10;26.70;57.60
59975;DHT22;62136;-35.664;-63.766;2022-11-20T01:08:38;26.70;57.60
59975;DHT22;62136;-35.664;-63.766;2022-11-20T01:11:08;26.70;57.60
59975;DHT22;62136;-35.664;-63.766;2022-11-20T01:13:36;26.70;57.70
59975;DHT22;62136;-35.664;-63.766;2022-11-20T01:16:17;26.70;57.80
59975;DHT22;62136;-35.664;-63.766;2022-11-20T01:18:47;26.60;57.70
59975;DHT22;62136;-35.664;-63.766;2022-11-20T01:21:17;26.60;57.70
59975;DHT22;62136;-35.664;-63.766;2022-11-20T01:23:45;26.60;57.80
59975;DHT22;62136;-35.664;-63.766;2022-11-20T01:26:15;26.60;57.90
59975;DHT22;62136;-35.664;-63.766;2022-11-20T01:28:43;26.60;57.90
59975;DHT22;62136;-35.664;-63.766;2022-11-20T01:31:24;26.50;57.80
59975;DHT22;62136;-35.664;-63.766;2022-11-20T01:33:54;26.60;58.00
59975;DHT22;62136;-35.664;-63.766;2022-11-20T01:36:23;26.50;57.90
59975;DHT22;62136;-35.664;-63.766;2022-11-20T01:38:54;26.50;57.90
59975;DHT22;62136;-35.664;-63.766;2022-11-20T01:41:23;26.50;58.00
59975;DHT22;62136;-35.664;-63.766;2022-11-20T01:44:10;26.50;57.70
59975;DHT22;62136;-35.664;-63.766;2022-11-20T01:46:39;26.50;58.10
59975;DHT22;62136;-35.664;-63.766;2022-11-20T01:49:17;26.50;58.10
59975;DHT22;62136;-35.664;-63.766;2022-11-20T01:51:52;26.40;58.10
59975;DHT22;62136;-35.664;-63.766;2022-11-20T01:54:25;26.40;58.20
59975;DHT22;62136;-35.664;-63.766;2022-11-20T01:56:56;26.40;58.20
59975;DHT22;62136;-35.664;-63.766;2022-11-20T01:59:25;26.40;58.30
59975;DHT22;62136;-35.664;-63.766;2022-11-20T02:01:53;26.40;58.30
59975;DHT22;62136;-35.664;-63.766;2022-11-20T02:04:20;26.40;58.20
59975;DHT22;62136;-35.664;-63.766;2022-11-20T02:06:59;26.40;58.30
59975;DHT22;62136;-35.664;-63.766;2022-11-20T02:09:28;26.40;58.30
59975;DHT22;62136;-35.664;-63.766;2022-11-20T02:11:55;26.30;58.30
59975;DHT22;62136;-35.664;-63.766;2022-11-20T02:14:23;26.30;58.30
59975;DHT22;62136;-35.664;-63.766;2022-11-20T02:16:51;26.30;58.40
59975;DHT22;62136;-35.664;-63.766;2022-11-20T02:19:36;26.30;58.40
59975;DHT22;62136;-35.664;-63.766;2022-11-20T02:22:24;26.30;58.50
59975;DHT22;62136;-35.664;-63.766;2022-11-20T02:24:55;26.30;58.50
59975;DHT22;62136;-35.664;-63.766;2022-11-20T02:27:23;26.30;58.50
59975;DHT22;62136;-35.664;-63.766;2022-11-20T02:30:09;26.20;58.40
59975;DHT22;62136;-35.664;-63.766;2022-11-20T02:32:38;26.30;58.50
59975;DHT22;62136;-35.664;-63.766;2022-11-20T02:37:52;26.20;58.40
59975;DHT22;62136;-35.664;-63.766;2022-11-20T02:40:21;26.20;58.50
59975;DHT22;62136;-35.664;-63.766;2022-11-20T02:42:57;26.20;58.60
59975;DHT22;62136;-35.664;-63.766;2022-11-20T02:45:24;26.20;58.60
59975;DHT22;62136;-35.664;-63.766;2022-11-20T02:47:52;26.20;58.60
59975;DHT22;62136;-35.664;-63.766;2022-11-20T02:50:19;26.10;58.50
59975;DHT22;62136;-35.664;-63.766;2022-11-20T02:52:46;26.10;58.60
59975;DHT22;62136;-35.664;-63.766;2022-11-20T02:55:13;26.10;58.60
59975;DHT22;62136;-35.664;-63.766;2022-11-20T02:57:40;26.10;58.60
59975;DHT22;62136;-35.664;-63.766;2022-11-20T03:00:07;26.10;58.60
59975;DHT22;62136;-35.664;-63.766;2022-11-20T03:02:35;26.10;58.60
59975;DHT22;62136;-35.664;-63.766;2022-11-20T03:05:02;26.10;58.70
59975;DHT22;62136;-35.664;-63.766;2022-11-20T03:07:29;26.10;58.60
59975;DHT22;62136;-35.664;-63.766;2022-11-20T03:09:56;26.10;58.60
59975;DHT22;62136;-35.664;-63.766;2022-11-20T03:12:23;26.10;58.70
59975;DHT22;62136;-35.664;-63.766;2022-11-20T03:14:50;26.10;58.70
59975;DHT22;62136;-35.664;-63.766;2022-11-20T03:17:17;26.10;58.70
59975;DHT22;62136;-35.664;-63.766;2022-11-20T03:19:44;26.10;58.80
59975;DHT22;62136;-35.664;-63.766;2022-11-20T03:22:11;26.10;58.80
59975;DHT22;62136;-35.664;-63.766;2022-11-20T03:24:38;26.10;58.80
59975;DHT22;62136;-35.664;-63.766;2022-11-20T03:27:05;26.00;59.20
59975;DHT22;62136;-35.664;-63.766;2022-11-20T03:29:32;26.00;58.80
59975;DHT22;62136;-35.664;-63.766;2022-11-20T03:31:59;26.00;58.90
59975;DHT22;62136;-35.664;-63.766;2022-11-20T03:34:26;26.00;58.90
59975;DHT22;62136;-35.664;-63.766;2022-11-20T03:36:53;26.00;59.00
59975;DHT22;62136;-35.664;-63.766;2022-11-20T03:39:20;26.00;59.00
59975;DHT22;62136;-35.664;-63.766;2022-11-20T03:41:47;26.00;59.00
59975;DHT22;62136;-35.664;-63.766;2022-11-20T03:44:14;26.00;59.00
59975;DHT22;62136;-35.664;-63.766;2022-11-20T03:46:41;26.00;59.00
59975;DHT22;62136;-35.664;-63.766;2022-11-20T03:49:08;25.90;58.90
59975;DHT22;62136;-35.664;-63.766;2022-11-20T03:51:36;25.90;59.00
59975;DHT22;62136;-35.664;-63.766;2022-11-20T03:54:06;25.90;59.10
59975;DHT22;62136;-35.664;-63.766;2022-11-20T03:56:35;25.80;59.10
59975;DHT22;62136;-35.664;-63.766;2022-11-20T03:59:03;25.80;59.10
59975;DHT22;62136;-35.664;-63.766;2022-11-20T04:01:35;25.70;59.00
59975;DHT22;62136;-35.664;-63.766;2022-11-20T04:04:05;25.80;59.20
59975;DHT22;62136;-35.664;-63.766;2022-11-20T04:06:37;25.70;59.10
59975;DHT22;62136;-35.664;-63.766;2022-11-20T04:09:05;25.70;59.20
59975;DHT22;62136;-35.664;-63.766;2022-11-20T04:11:34;25.70;59.30
59975;DHT22;62136;-35.664;-63.766;2022-11-20T04:14:06;25.60;59.20
59975;DHT22;62136;-35.664;-63.766;2022-11-20T04:19:24;25.60;59.30
59975;DHT22;62136;-35.664;-63.766;2022-11-20T04:21:52;25.50;59.30
59975;DHT22;62136;-35.664;-63.766;2022-11-20T04:24:19;25.60;59.40
59975;DHT22;62136;-35.664;-63.766;2022-11-20T04:26:46;25.50;59.30
59975;DHT22;62136;-35.664;-63.766;2022-11-20T04:29:13;25.50;59.30
59975;DHT22;62136;-35.664;-63.766;2022-11-20T04:31:40;25.40;59.30
59975;DHT22;62136;-35.664;-63.766;2022-11-20T04:34:10;25.50;59.30
59975;DHT22;62136;-35.664;-63.766;2022-11-20T04:36:38;25.40;59.40
59975;DHT22;62136;-35.664;-63.766;2022-11-20T04:39:06;25.40;59.40
59975;DHT22;62136;-35.664;-63.766;2022-11-20T04:41:35;25.40;59.40
59975;DHT22;62136;-35.664;-63.766;2022-11-20T04:44:04;25.40;59.30
59975;DHT22;62136;-35.664;-63.766;2022-11-20T04:46:34;25.40;59.40
59975;DHT22;62136;-35.664;-63.766;2022-11-20T04:49:01;25.40;59.40
59975;DHT22;62136;-35.664;-63.766;2022-11-20T04:51:28;25.40;59.40
59975;DHT22;62136;-35.664;-63.766;2022-11-20T04:53:56;25.30;59.40
59975;DHT22;62136;-35.664;-63.766;2022-11-20T04:56:23;25.30;59.30
59975;DHT22;62136;-35.664;-63.766;2022-11-20T04:58:50;25.30;59.40
59975;DHT22;62136;-35.664;-63.766;2022-11-20T05:01:22;25.30;59.40
59975;DHT22;62136;-35.664;-63.766;2022-11-20T05:03:52;25.30;59.90
59975;DHT22;62136;-35.664;-63.766;2022-11-20T05:06:21;25.20;59.30
59975;DHT22;62136;-35.664;-63.766;2022-11-20T05:08:48;25.20;59.30
59975;DHT22;62136;-35.664;-63.766;2022-11-20T05:11:20;25.20;59.30
59975;DHT22;62136;-35.664;-63.766;2022-11-20T05:13:48;25.10;59.30
59975;DHT22;62136;-35.664;-63.766;2022-11-20T05:16:20;25.10;59.30
59975;DHT22;62136;-35.664;-63.766;2022-11-20T05:18:47;25.10;59.30
59975;DHT22;62136;-35.664;-63.766;2022-11-20T05:21:17;25.10;59.30
59975;DHT22;62136;-35.664;-63.766;2022-11-20T05:23:48;25.10;59.30
59975;DHT22;62136;-35.664;-63.766;2022-11-20T05:26:18;25.10;59.30
59975;DHT22;62136;-35.664;-63.766;2022-11-20T05:28:45;25.10;59.30
59975;DHT22;62136;-35.664;-63.766;2022-11-20T05:31:15;25.00;59.30
59975;DHT22;62136;-35.664;-63.766;2022-11-20T05:33:44;25.00;59.30
59975;DHT22;62136;-35.664;-63.766;2022-11-20T05:36:14;25.00;59.30
59975;DHT22;62136;-35.664;-63.766;2022-11-20T05:38:42;24.90;59.20
59975;DHT22;62136;-35.664;-63.766;2022-11-20T05:41:15;24.90;59.20
59975;DHT22;62136;-35.664;-63.766;2022-11-20T05:43:44;24.90;59.20
59975;DHT22;62136;-35.664;-63.766;2022-11-20T05:46:14;24.80;59.40
59975;DHT22;62136;-35.664;-63.766;2022-11-20T05:48:42;24.80;59.30
59975;DHT22;62136;-35.664;-63.766;2022-11-20T05:51:14;24.80;59.20
59975;DHT22;62136;-35.664;-63.766;2022-11-20T05:53:41;24.80;59.00
59975;DHT22;62136;-35.664;-63.766;2022-11-20T05:56:14;24.80;59.20
59975;DHT22;62136;-35.664;-63.766;2022-11-20T05:58:42;24.80;59.10
59975;DHT22;62136;-35.664;-63.766;2022-11-20T06:01:19;24.80;59.00
59975;DHT22;62136;-35.664;-63.766;2022-11-20T06:03:47;24.80;59.00
59975;DHT22;62136;-35.664;-63.766;2022-11-20T06:06:21;24.80;58.90
59975;DHT22;62136;-35.664;-63.766;2022-11-20T06:08:48;24.80;58.90
59975;DHT22;62136;-35.664;-63.766;2022-11-20T06:11:16;24.70;58.90
59975;DHT22;62136;-35.664;-63.766;2022-11-20T06:13:43;24.70;58.90
59975;DHT22;62136;-35.664;-63.766;2022-11-20T06:16:11;24.70;58.80
59975;DHT22;62136;-35.664;-63.766;2022-11-20T06:18:39;24.70;58.80
59975;DHT22;62136;-35.664;-63.766;2022-11-20T06:23:35;24.70;59.10
59975;DHT22;62136;-35.664;-63.766;2022-11-20T06:26:07;24.70;58.80
59975;DHT22;62136;-35.664;-63.766;2022-11-20T06:28:34;24.60;58.70
59975;DHT22;62136;-35.664;-63.766;2022-11-20T06:31:02;24.60;58.70
59975;DHT22;62136;-35.664;-63.766;2022-11-20T06:33:33;24.60;58.70
59975;DHT22;62136;-35.664;-63.766;2022-11-20T06:36:01;24.60;58.70
59975;DHT22;62136;-35.664;-63.766;2022-11-20T06:38:28;24.60;58.70
59975;DHT22;62136;-35.664;-63.766;2022-11-20T06:40:56;24.60;58.70
59975;DHT22;62136;-35.664;-63.766;2022-11-20T06:43:23;24.60;58.80
59975;DHT22;62136;-35.664;-63.766;2022-11-20T06:45:55;24.50;58.80
59975;DHT22;62136;-35.664;-63.766;2022-11-20T06:48:23;24.50;58.70
59975;DHT22;62136;-35.664;-63.766;2022-11-20T06:50:50;24.50;58.70
59975;DHT22;62136;-35.664;-63.766;2022-11-20T06:53:17;24.50;58.70
59975;DHT22;62136;-35.664;-63.766;2022-11-20T06:55:46;24.50;58.70
59975;DHT22;62136;-35.664;-63.766;2022-11-20T06:58:14;24.50;58.80
59975;DHT22;62136;-35.664;-63.766;2022-11-20T07:00:42;24.40;58.70
59975;DHT22;62136;-35.664;-63.766;2022-11-20T07:03:11;24.40;58.70
59975;DHT22;62136;-35.664;-63.766;2022-11-20T07:05:38;24.40;58.80
59975;DHT22;62136;-35.664;-63.766;2022-11-20T07:08:07;24.40;58.80
59975;DHT22;62136;-35.664;-63.766;2022-11-20T07:10:34;24.40;58.90
59975;DHT22;62136;-35.664;-63.766;2022-11-20T07:13:01;24.30;58.80
59975;DHT22;62136;-35.664;-63.766;2022-11-20T07:15:29;24.30;58.80
59975;DHT22;62136;-35.664;-63.766;2022-11-20T07:17:59;24.30;58.90
59975;DHT22;62136;-35.664;-63.766;2022-11-20T07:20:26;24.30;58.80
59975;DHT22;62136;-35.664;-63.766;2022-11-20T07:22:55;24.30;58.80
59975;DHT22;62136;-35.664;-63.766;2022-11-20T07:25:23;24.30;58.80
59975;DHT22;62136;-35.664;-63.766;2022-11-20T07:27:50;24.30;58.80
59975;DHT22;62136;-35.664;-63.766;2022-11-20T07:30:18;24.30;58.90
59975;DHT22;62136;-35.664;-63.766;2022-11-20T07:32:51;24.30;58.90
59975;DHT22;62136;-35.664;-63.766;2022-11-20T07:35:19;24.30;58.90
59975;DHT22;62136;-35.664;-63.766;2022-11-20T07:37:47;24.30;58.80
59975;DHT22;62136;-35.664;-63.766;2022-11-20T07:40:15;24.30;58.90
59975;DHT22;62136;-35.664;-63.766;2022-11-20T07:42:53;24.30;58.70
59975;DHT22;62136;-35.664;-63.766;2022-11-20T07:45:22;24.30;58.90
59975;DHT22;62136;-35.664;-63.766;2022-11-20T07:47:50;24.30;58.80
59975;DHT22;62136;-35.664;-63.766;2022-11-20T07:50:18;24.30;59.20
59975;DHT22;62136;-35.664;-63.766;2022-11-20T07:52:45;24.30;58.90
59975;DHT22;62136;-35.664;-63.766;2022-11-20T07:55:13;24.20;58.90
59975;DHT22;62136;-35.664;-63.766;2022-11-20T07:57:41;24.20;59.30
59975;DHT22;62136;-35.664;-63.766;2022-11-20T08:00:10;24.20;58.80
59975;DHT22;62136;-35.664;-63.766;2022-11-20T08:02:41;24.20;58.80
59975;DHT22;62136;-35.664;-63.766;2022-11-20T08:05:09;24.20;58.90
59975;DHT22;62136;-35.664;-63.766;2022-11-20T08:07:38;24.20;58.70
59975;DHT22;62136;-35.664;-63.766;2022-11-20T08:10:06;24.20;58.80
59975;DHT22;62136;-35.664;-63.766;2022-11-20T08:12:34;24.20;58.90
59975;DHT22;62136;-35.664;-63.766;2022-11-20T08:15:19;24.20;59.00
59975;DHT22;62136;-35.664;-63.766;2022-11-20T08:17:46;24.20;59.10
59975;DHT22;62136;-35.664;-63.766;2022-11-20T08:20:13;24.20;59.00
59975;DHT22;62136;-35.664;-63.766;2022-11-20T08:22:40;24.10;59.00
59975;DHT22;62136;-35.664;-63.766;2022-11-20T08:25:07;24.10;59.10
59975;DHT22;62136;-35.664;-63.766;2022-11-20T08:27:35;24.10;59.10
59975;DHT22;62136;-35.664;-63.766;2022-11-20T08:30:02;24.10;59.00
59975;DHT22;62136;-35.664;-63.766;2022-11-20T08:32:29;24.10;59.20
59975;DHT22;62136;-35.664;-63.766;2022-11-20T08:34:56;24.10;59.30
59975;DHT22;62136;-35.664;-63.766;2022-11-20T08:37:23;24.10;59.30
59975;DHT22;62136;-35.664;-63.766;2022-11-20T08:39:50;24.10;59.20
59975;DHT22;62136;-35.664;-63.766;2022-11-20T08:42:17;24.10;59.40
59975;DHT22;62136;-35.664;-63.766;2022-11-20T08:44:44;24.10;59.40
59975;DHT22;62136;-35.664;-63.766;2022-11-20T08:47:11;24.10;59.30
59975;DHT22;62136;-35.664;-63.766;2022-11-20T08:49:38;24.00;59.40
59975;DHT22;62136;-35.664;-63.766;2022-11-20T08:52:05;24.10;59.30
59975;DHT22;62136;-35.664;-63.766;2022-11-20T08:54:38;24.10;59.50
59975;DHT22;62136;-35.664;-63.766;2022-11-20T08:57:37;24.10;59.40
59975;DHT22;62136;-35.664;-63.766;2022-11-20T09:00:06;24.10;59.50
59975;DHT22;62136;-35.664;-63.766;2022-11-20T09:02:34;24.00;59.60
59975;DHT22;62136;-35.664;-63.766;2022-11-20T09:05:01;24.00;59.60
59975;DHT22;62136;-35.664;-63.766;2022-11-20T09:07:29;24.00;59.50
59975;DHT22;62136;-35.664;-63.766;2022-11-20T09:09:56;24.00;59.70
59975;DHT22;62136;-35.664;-63.766;2022-11-20T09:12:23;24.00;59.60
59975;DHT22;62136;-35.664;-63.766;2022-11-20T09:14:50;24.00;59.80
59975;DHT22;62136;-35.664;-63.766;2022-11-20T09:17:18;24.00;59.90
59975;DHT22;62136;-35.664;-63.766;2022-11-20T09:19:46;24.00;59.80
59975;DHT22;62136;-35.664;-63.766;2022-11-20T09:22:13;24.00;59.70
59975;DHT22;62136;-35.664;-63.766;2022-11-20T09:24:40;24.00;59.70
59975;DHT22;62136;-35.664;-63.766;2022-11-20T09:27:09;24.00;59.80
59975;DHT22;62136;-35.664;-63.766;2022-11-20T09:29:36;23.90;59.80
59975;DHT22;62136;-35.664;-63.766;2022-11-20T09:32:03;23.90;59.80
59975;DHT22;62136;-35.664;-63.766;2022-11-20T09:34:30;23.90;59.90
59975;DHT22;62136;-35.664;-63.766;2022-11-20T09:36:57;23.90;59.80
59975;DHT22;62136;-35.664;-63.766;2022-11-20T09:39:24;23.90;60.00
59975;DHT22;62136;-35.664;-63.766;2022-11-20T09:47:42;23.90;60.10
59975;DHT22;62136;-35.664;-63.766;2022-11-20T09:56:01;23.90;60.30
59975;DHT22;62136;-35.664;-63.766;2022-11-20T09:58:42;23.90;60.20
59975;DHT22;62136;-35.664;-63.766;2022-11-20T10:01:23;23.90;60.40
59975;DHT22;62136;-35.664;-63.766;2022-11-20T10:09:38;23.90;60.60
59975;DHT22;62136;-35.664;-63.766;2022-11-20T10:12:20;23.80;60.60
59975;DHT22;62136;-35.664;-63.766;2022-11-20T10:20:40;23.80;60.60
59975;DHT22;62136;-35.664;-63.766;2022-11-20T10:26:50;23.80;60.80
59975;DHT22;62136;-35.664;-63.766;2022-11-20T10:29:26;23.80;60.70
59975;DHT22;62136;-35.664;-63.766;2022-11-20T10:32:11;23.80;60.90
59975;DHT22;62136;-35.664;-63.766;2022-11-20T10:35:14;23.80;60.90
59975;DHT22;62136;-35.664;-63.766;2022-11-20T10:37:46;23.80;60.90
59975;DHT22;62136;-35.664;-63.766;2022-11-20T10:42:57;23.80;61.00
59975;DHT22;62136;-35.664;-63.766;2022-11-20T10:48:20;23.80;61.60
59975;DHT22;62136;-35.664;-63.766;2022-11-20T10:51:08;23.70;61.00
59975;DHT22;62136;-35.664;-63.766;2022-11-20T10:53:57;23.70;61.10
59975;DHT22;62136;-35.664;-63.766;2022-11-20T10:56:46;23.70;61.10
59975;DHT22;62136;-35.664;-63.766;2022-11-20T11:00:05;23.70;61.20
59975;DHT22;62136;-35.664;-63.766;2022-11-20T11:02:39;23.70;61.30
59975;DHT22;62136;-35.664;-63.766;2022-11-20T11:07:59;23.70;61.40
59975;DHT22;62136;-35.664;-63.766;2022-11-20T11:10:53;23.70;61.40
59975;DHT22;62136;-35.664;-63.766;2022-11-20T11:13:26;23.70;61.60
59975;DHT22;62136;-35.664;-63.766;2022-11-20T11:15:53;23.60;61.40
59975;DHT22;62136;-35.664;-63.766;2022-11-20T11:20:57;23.60;61.50
59975;DHT22;62136;-35.664;-63.766;2022-11-20T11:26:06;23.60;61.70
59975;DHT22;62136;-35.664;-63.766;2022-11-20T11:28:34;23.60;61.80
59975;DHT22;62136;-35.664;-63.766;2022-11-20T11:31:01;23.60;61.80
59975;DHT22;62136;-35.664;-63.766;2022-11-20T11:33:30;23.60;61.70
59975;DHT22;62136;-35.664;-63.766;2022-11-20T11:36:00;23.60;62.00
59975;DHT22;62136;-35.664;-63.766;2022-11-20T11:38:42;23.50;61.80
59975;DHT22;62136;-35.664;-63.766;2022-11-20T11:41:17;23.60;61.80
59975;DHT22;62136;-35.664;-63.766;2022-11-20T11:43:52;23.60;62.00
59975;DHT22;62136;-35.664;-63.766;2022-11-20T11:46:39;23.60;62.10
59975;DHT22;62136;-35.664;-63.766;2022-11-20T11:49:18;23.60;62.10
59975;DHT22;62136;-35.664;-63.766;2022-11-20T12:05:27;23.60;62.20
59975;DHT22;62136;-35.664;-63.766;2022-11-20T12:14:02;23.60;62.20
59975;DHT22;62136;-35.664;-63.766;2022-11-20T12:16:36;23.60;62.20
59975;DHT22;62136;-35.664;-63.766;2022-11-20T12:19:12;23.60;62.10
59975;DHT22;62136;-35.664;-63.766;2022-11-20T12:28:22;23.60;62.20
59975;DHT22;62136;-35.664;-63.766;2022-11-20T12:30:33;23.60;62.20
59975;DHT22;62136;-35.664;-63.766;2022-11-20T12:35:49;23.60;62.20
59975;DHT22;62136;-35.664;-63.766;2022-11-20T12:44:40;23.70;62.30
59975;DHT22;62136;-35.664;-63.766;2022-11-20T12:52:57;23.80;62.10
59975;DHT22;62136;-35.664;-63.766;2022-11-20T12:56:44;23.80;62.00
59975;DHT22;62136;-35.664;-63.766;2022-11-20T13:06:44;23.90;61.70
59975;DHT22;62136;-35.664;-63.766;2022-11-20T13:09:16;23.90;61.70
59975;DHT22;62136;-35.664;-63.766;2022-11-20T13:14:32;23.90;61.60
59975;DHT22;62136;-35.664;-63.766;2022-11-20T13:17:09;23.90;61.60
59975;DHT22;62136;-35.664;-63.766;2022-11-20T13:19:39;23.90;61.50
59975;DHT22;62136;-35.664;-63.766;2022-11-20T13:22:08;23.90;61.50
59975;DHT22;62136;-35.664;-63.766;2022-11-20T13:24:36;23.90;61.50
59975;DHT22;62136;-35.664;-63.766;2022-11-20T13:29:36;24.00;61.50
59975;DHT22;62136;-35.664;-63.766;2022-11-20T13:32:15;24.00;61.30
59975;DHT22;62136;-35.664;-63.766;2022-11-20T13:35:03;24.00;61.30
59975;DHT22;62136;-35.664;-63.766;2022-11-20T13:37:37;24.00;61.40
59975;DHT22;62136;-35.664;-63.766;2022-11-20T13:40:05;24.10;61.20
59975;DHT22;62136;-35.664;-63.766;2022-11-20T13:42:37;24.10;61.30
59975;DHT22;62136;-35.664;-63.766;2022-11-20T13:45:27;24.10;61.10
59975;DHT22;62136;-35.664;-63.766;2022-11-20T13:47:55;24.10;61.10
59975;DHT22;62136;-35.664;-63.766;2022-11-20T13:54:10;24.10;60.80
59975;DHT22;62136;-35.664;-63.766;2022-11-20T13:56:45;24.10;60.80
59975;DHT22;62136;-35.664;-63.766;2022-11-20T14:02:00;24.10;60.40
59975;DHT22;62136;-35.664;-63.766;2022-11-20T14:04:35;24.20;60.50
59975;DHT22;62136;-35.664;-63.766;2022-11-20T14:07:05;24.20;60.70
59975;DHT22;62136;-35.664;-63.766;2022-11-20T14:09:33;24.20;60.60
59975;DHT22;62136;-35.664;-63.766;2022-11-20T14:12:02;24.20;60.50
59975;DHT22;62136;-35.664;-63.766;2022-11-20T14:14:33;24.20;60.60
59975;DHT22;62136;-35.664;-63.766;2022-11-20T14:17:08;24.20;60.50
59975;DHT22;62136;-35.664;-63.766;2022-11-20T14:19:35;24.20;60.50
59975;DHT22;62136;-35.664;-63.766;2022-11-20T14:22:20;24.30;60.60
59975;DHT22;62136;-35.664;-63.766;2022-11-20T14:24:51;24.20;60.40
59975;DHT22;62136;-35.664;-63.766;2022-11-20T14:27:27;24.20;60.30
59975;DHT22;62136;-35.664;-63.766;2022-11-20T14:29:54;24.30;60.40
59975;DHT22;62136;-35.664;-63.766;2022-11-20T14:32:26;24.20;60.40
59975;DHT22;62136;-35.664;-63.766;2022-11-20T14:34:54;24.20;60.30
59975;DHT22;62136;-35.664;-63.766;2022-11-20T14:37:26;24.20;60.20
59975;DHT22;62136;-35.664;-63.766;2022-11-20T14:39:55;24.20;60.10
59975;DHT22;62136;-35.664;-63.766;2022-11-20T14:42:27;24.20;60.20
59975;DHT22;62136;-35.664;-63.766;2022-11-20T14:44:59;24.20;60.20
59975;DHT22;62136;-35.664;-63.766;2022-11-20T14:47:29;24.20;60.20
59975;DHT22;62136;-35.664;-63.766;2022-11-20T14:49:57;24.20;59.90
59975;DHT22;62136;-35.664;-63.766;2022-11-20T14:52:26;24.20;59.90
59975;DHT22;62136;-35.664;-63.766;2022-11-20T14:54:58;24.20;60.00
59975;DHT22;62136;-35.664;-63.766;2022-11-20T15:02:42;24.20;59.90
59975;DHT22;62136;-35.664;-63.766;2022-11-20T15:05:09;24.20;59.90
59975;DHT22;62136;-35.664;-63.766;2022-11-20T15:07:39;24.20;59.90
59975;DHT22;62136;-35.664;-63.766;2022-11-20T15:10:23;24.20;59.90
59975;DHT22;62136;-35.664;-63.766;2022-11-20T15:18:13;24.20;59.70
59975;DHT22;62136;-35.664;-63.766;2022-11-20T15:20:41;24.20;59.50
59975;DHT22;62136;-35.664;-63.766;2022-11-20T15:23:13;24.10;59.50
59975;DHT22;62136;-35.664;-63.766;2022-11-20T15:25:43;24.10;59.50
59975;DHT22;62136;-35.664;-63.766;2022-11-20T15:28:31;24.20;59.50
59975;DHT22;62136;-35.664;-63.766;2022-11-20T15:30:58;24.10;59.40
59975;DHT22;62136;-35.664;-63.766;2022-11-20T15:33:25;24.20;59.40
59975;DHT22;62136;-35.664;-63.766;2022-11-20T15:35:52;24.20;59.40
59975;DHT22;62136;-35.664;-63.766;2022-11-20T15:38:19;24.20;59.30
59975;DHT22;62136;-35.664;-63.766;2022-11-20T15:40:47;24.20;59.40
59975;DHT22;62136;-35.664;-63.766;2022-11-20T15:43:14;24.20;59.30
59975;DHT22;62136;-35.664;-63.766;2022-11-20T15:46:19;24.20;59.10
59975;DHT22;62136;-35.664;-63.766;2022-11-20T15:48:47;24.20;59.20
59975;DHT22;62136;-35.664;-63.766;2022-11-20T15:51:26;24.20;59.00
59975;DHT22;62136;-35.664;-63.766;2022-11-20T15:53:55;24.20;59.10
59975;DHT22;62136;-35.664;-63.766;2022-11-20T15:56:22;24.20;58.90
59975;DHT22;62136;-35.664;-63.766;2022-11-20T15:58:49;24.20;59.00
59975;DHT22;62136;-35.664;-63.766;2022-11-20T16:01:21;24.20;59.00
59975;DHT22;62136;-35.664;-63.766;2022-11-20T16:03:48;24.20;59.40
59975;DHT22;62136;-35.664;-63.766;2022-11-20T16:06:16;24.20;58.90
59975;DHT22;62136;-35.664;-63.766;2022-11-20T16:08:43;24.20;58.90
59975;DHT22;62136;-35.664;-63.766;2022-11-20T16:11:15;24.20;58.80
59975;DHT22;62136;-35.664;-63.766;2022-11-20T16:13:43;24.20;58.70
59975;DHT22;62136;-35.664;-63.766;2022-11-20T16:16:36;24.20;58.60
59975;DHT22;62136;-35.664;-63.766;2022-11-20T16:19:04;24.20;58.60
59975;DHT22;62136;-35.664;-63.766;2022-11-20T16:21:31;24.20;58.60
59975;DHT22;62136;-35.664;-63.766;2022-11-20T16:24:12;24.20;58.40
59975;DHT22;62136;-35.664;-63.766;2022-11-20T16:26:40;24.20;58.40
59975;DHT22;62136;-35.664;-63.766;2022-11-20T16:29:08;24.20;58.40
59975;DHT22;62136;-35.664;-63.766;2022-11-20T16:31:36;24.30;58.40
59975;DHT22;62136;-35.664;-63.766;2022-11-20T16:34:06;24.20;58.20
59975;DHT22;62136;-35.664;-63.766;2022-11-20T16:36:33;24.30;58.30
59975;DHT22;62136;-35.664;-63.766;2022-11-20T16:39:02;24.30;58.10
59975;DHT22;62136;-35.664;-63.766;2022-11-20T16:41:32;24.30;58.60
59975;DHT22;62136;-35.664;-63.766;2022-11-20T16:44:01;24.30;58.00
59975;DHT22;62136;-35.664;-63.766;2022-11-20T16:46:30;24.30;58.00
59975;DHT22;62136;-35.664;-63.766;2022-11-20T16:49:03;24.30;58.00
59975;DHT22;62136;-35.664;-63.766;2022-11-20T16:51:31;24.30;57.90
59975;DHT22;62136;-35.664;-63.766;2022-11-20T16:54:04;24.30;57.80
59975;DHT22;62136;-35.664;-63.766;2022-11-20T16:56:32;24.30;57.70
59975;DHT22;62136;-35.664;-63.766;2022-11-20T16:59:00;24.30;57.70
59975;DHT22;62136;-35.664;-63.766;2022-11-20T17:01:28;24.40;57.70
59975;DHT22;62136;-35.664;-63.766;2022-11-20T17:04:01;24.40;57.60
59975;DHT22;62136;-35.664;-63.766;2022-11-20T17:06:30;24.40;57.60
59975;DHT22;62136;-35.664;-63.766;2022-11-20T17:08:58;24.40;57.60